Terminal Aerodrome Forecast
Issued by NWS

Home | Current Version | Previous Version | Text Only | Print | Product List | Glossary On
Versions: 1 2 3 4 5 6 7 8 9 10 11 12 13 14 15 16 17 18 19
000
FTUS43 KGRB 300903 AAB
TAFATW
TAF AMD
KATW 300903Z 3009/3106 00000KT 3SM BR FEW002
      TEMPO 3009/3013 1/2SM FG BKN002
     FM301500 22003KT 5SM BR BKN012
     FM301600 21005KT P6SM FEW020
     FM301800 21006KT P6SM SKC=

USA.gov is the U.S. government's official web portal to all federal, state and local government web resources and services.